Time;durP1;ratioP1;P1;durP2;ratioP2;P2;SDS_P1;SDS_P2;PMS_P1;PMS_P2;Temp;Humidity;BMP_temperature;BMP_pressure;BME280_temperature;BME280_humidity;BME280_pressure;Samples;Min_cycle;Max_cycle;Signal;HPM_P1;HPM_P2
2024/01/25 00:01:51;;;;;;;10.60;2.80;;;;;;;8.50;71.14;98303.69;6283046;28;20190;-56
2024/01/25 00:04:53;;;;;;;11.93;2.67;;;;;;;8.90;66.49;98298.13;6284432;28;20597;-57
2024/01/25 00:07:56;;;;;;;11.23;2.43;;;;;;;8.88;67.39;98305.50;6273126;28;20233;-53
2024/01/25 00:10:59;;;;;;;10.43;2.70;;;;;;;8.82;67.16;98301.06;6279774;28;20215;-58
2024/01/25 00:14:01;;;;;;;11.90;2.90;;;;;;;8.65;69.34;98305.25;6289035;28;20222;-53
2024/01/25 00:17:04;;;;;;;11.20;2.70;;;;;;;8.62;68.13;98297.69;6278752;28;20195;-55
2024/01/25 00:20:09;;;;;;;8.20;2.70;;;;;;;8.55;69.97;98324.31;6284036;28;20733;-54
2024/01/25 00:23:12;;;;;;;8.37;2.70;;;;;;;8.37;71.99;98313.56;6279237;28;20222;-56
2024/01/25 00:26:14;;;;;;;7.97;1.73;;;;;;;8.59;69.56;98324.69;6276357;28;20611;-56
2024/01/25 00:29:17;;;;;;;12.20;2.50;;;;;;;8.55;68.29;98308.38;6290414;28;20191;-56
2024/01/25 00:32:19;;;;;;;7.73;2.40;;;;;;;8.49;70.16;98319.84;6285590;28;20194;-55
2024/01/25 00:35:23;;;;;;;7.73;2.03;;;;;;;8.39;69.94;98322.16;6287053;28;20796;-56
2024/01/25 00:38:27;;;;;;;9.70;2.43;;;;;;;8.72;66.47;98345.88;6275499;28;20267;-56
2024/01/25 00:41:32;;;;;;;9.57;2.50;;;;;;;8.70;67.89;98353.22;6285004;28;20240;-54
2024/01/25 00:44:35;;;;;;;10.80;2.50;;;;;;;8.57;67.11;98326.75;6287356;28;20196;-55
2024/01/25 00:47:38;;;;;;;13.27;3.10;;;;;;;8.78;65.76;98340.53;6262275;28;20678;-57
2024/01/25 00:50:41;;;;;;;8.87;2.30;;;;;;;8.71;65.74;98322.97;6274998;28;20198;-56
2024/01/25 00:53:43;;;;;;;8.13;1.97;;;;;;;8.70;66.51;98303.56;6282984;28;20198;-56
2024/01/25 00:56:48;;;;;;;7.63;2.63;;;;;;;8.72;64.75;98316.66;6279029;28;20288;-56
2024/01/25 00:59:51;;;;;;;5.70;2.20;;;;;;;8.85;63.84;98327.19;6283738;28;20215;-54
2024/01/25 01:02:54;;;;;;;8.03;3.00;;;;;;;8.99;64.75;98343.84;6260108;28;20238;-55
2024/01/25 01:05:57;;;;;;;11.10;2.90;;;;;;;8.83;66.10;98357.66;6276445;28;20206;-56
2024/01/25 01:09:00;;;;;;;11.17;2.40;;;;;;;8.67;65.77;98335.91;6279631;28;20223;-55
2024/01/25 01:12:03;;;;;;;7.70;2.10;;;;;;;8.55;67.06;98345.53;6281818;28;20210;-53
2024/01/25 01:15:06;;;;;;;11.13;2.57;;;;;;;8.57;65.93;98345.31;6278579;28;20280;-54
2024/01/25 01:18:08;;;;;;;7.83;2.27;;;;;;;8.55;66.13;98312.88;6272853;28;20242;-55
2024/01/25 01:21:11;;;;;;;10.73;2.77;;;;;;;8.75;64.96;98330.31;6282494;28;20189;-54
2024/01/25 01:24:13;;;;;;;7.60;2.37;;;;;;;8.63;66.60;98347.16;6267145;28;20671;-56
2024/01/25 01:27:16;;;;;;;8.17;2.27;;;;;;;8.57;65.54;98324.06;6288355;28;20319;-57
2024/01/25 01:30:19;;;;;;;12.57;2.93;;;;;;;8.60;66.01;98335.09;6262474;28;20211;-55
2024/01/25 01:33:22;;;;;;;10.13;2.47;;;;;;;8.47;65.88;98328.03;6263014;28;20667;-54
2024/01/25 01:36:24;;;;;;;9.67;2.33;;;;;;;8.71;64.92;98339.72;6275369;28;20266;-55
2024/01/25 01:39:27;;;;;;;11.93;2.50;;;;;;;8.53;66.12;98344.97;6278340;28;20191;-55
2024/01/25 01:42:32;;;;;;;9.30;2.83;;;;;;;8.47;66.49;98362.56;6266133;28;20202;-56
2024/01/25 01:45:35;;;;;;;10.83;2.90;;;;;;;8.44;65.43;98322.31;6284414;28;20270;-56
2024/01/25 01:48:40;;;;;;;10.27;2.90;;;;;;;8.26;66.13;98315.81;6284547;28;20264;-57
2024/01/25 01:51:43;;;;;;;9.67;2.67;;;;;;;8.27;67.51;98321.94;6280390;28;20202;-53
2024/01/25 01:54:47;;;;;;;9.03;2.27;;;;;;;8.39;65.99;98317.66;6287470;28;20203;-55
2024/01/25 01:57:51;;;;;;;13.23;3.23;;;;;;;8.35;65.42;98318.25;6283639;28;20207;-56
2024/01/25 02:00:56;;;;;;;11.53;2.60;;;;;;;8.49;65.48;98312.69;6285225;28;20207;-56
2024/01/25 02:03:59;;;;;;;8.77;2.60;;;;;;;8.41;66.57;98331.50;6273159;28;20238;-55
2024/01/25 02:07:02;;;;;;;11.17;2.47;;;;;;;8.41;66.51;98326.19;6283527;28;20500;-56
2024/01/25 02:10:06;;;;;;;9.67;2.87;;;;;;;8.27;66.26;98316.63;6287110;28;20240;-56
2024/01/25 02:13:09;;;;;;;11.67;2.73;;;;;;;8.23;66.84;98324.22;6262489;28;20191;-56
2024/01/25 02:16:11;;;;;;;10.17;2.37;;;;;;;8.33;66.53;98318.47;6275813;28;20199;-57
2024/01/25 02:19:14;;;;;;;11.73;2.60;;;;;;;8.46;65.17;98325.56;6279805;28;20198;-53
2024/01/25 02:22:18;;;;;;;9.43;2.30;;;;;;;8.41;65.72;98307.63;6284803;28;20565;-57
2024/01/25 02:25:21;;;;;;;15.27;3.17;;;;;;;8.36;66.54;98318.06;6254109;28;20199;-56
2024/01/25 02:28:25;;;;;;;8.70;2.30;;;;;;;8.34;67.34;98321.94;6279556;28;20626;-57
2024/01/25 02:31:27;;;;;;;13.73;2.50;;;;;;;8.15;68.81;98321.00;6277019;28;20235;-56
2024/01/25 02:34:30;;;;;;;6.67;2.37;;;;;;;8.09;68.38;98304.06;6278657;28;20261;-56
2024/01/25 02:37:32;;;;;;;12.27;2.60;;;;;;;8.11;67.89;98320.59;6239685;28;20292;-54
2024/01/25 02:40:35;;;;;;;9.73;2.93;;;;;;;8.16;68.32;98312.81;6282968;28;20205;-56
2024/01/25 02:43:37;;;;;;;11.73;2.80;;;;;;;8.16;67.34;98314.66;6284178;28;20191;-56
2024/01/25 02:46:39;;;;;;;10.47;3.07;;;;;;;8.15;68.12;98321.81;6277702;28;20677;-55
2024/01/25 02:49:42;;;;;;;13.40;2.47;;;;;;;8.19;66.88;98319.56;6277061;28;20276;-56
2024/01/25 02:52:45;;;;;;;11.33;2.93;;;;;;;8.15;67.12;98305.06;6282159;28;20614;-57
2024/01/25 02:55:48;;;;;;;8.73;2.20;;;;;;;8.28;65.50;98299.72;6278499;28;20195;-56
2024/01/25 02:58:52;;;;;;;7.90;2.57;;;;;;;8.18;66.39;98323.25;6280349;28;20195;-56
2024/01/25 03:01:54;;;;;;;8.17;2.33;;;;;;;8.32;65.97;98313.34;6284137;28;20198;-57
2024/01/25 03:04:57;;;;;;;8.27;2.80;;;;;;;8.14;66.52;98301.59;6285027;28;20702;-56
2024/01/25 03:08:00;;;;;;;12.03;3.07;;;;;;;8.15;66.45;98307.72;6284239;28;20235;-56
2024/01/25 03:11:04;;;;;;;11.70;2.60;;;;;;;8.04;67.70;98313.69;6282642;28;20189;-56
2024/01/25 03:14:07;;;;;;;11.87;2.30;;;;;;;7.90;70.39;98327.00;6286978;28;20195;-53
2024/01/25 03:17:09;;;;;;;9.67;2.23;;;;;;;8.14;68.77;98306.09;6281080;28;20214;-56
2024/01/25 03:20:11;;;;;;;8.17;2.43;;;;;;;8.17;68.03;98293.19;6259427;28;20237;-54
2024/01/25 03:23:14;;;;;;;11.83;2.60;;;;;;;8.14;68.33;98304.25;6276860;28;20570;-56
2024/01/25 03:26:17;;;;;;;9.07;2.30;;;;;;;7.95;70.43;98276.78;6285085;28;20332;-56
2024/01/25 03:29:19;;;;;;;11.30;2.50;;;;;;;8.04;70.08;98297.78;6288068;28;20194;-54
2024/01/25 03:32:22;;;;;;;9.07;2.63;;;;;;;7.95;71.14;98291.88;6281266;28;20203;-57
2024/01/25 03:35:25;;;;;;;9.03;2.37;;;;;;;8.00;71.90;98306.16;6268366;28;20324;-57
2024/01/25 03:38:27;;;;;;;6.63;2.23;;;;;;;7.93;72.98;98304.53;6280568;28;20616;-57
2024/01/25 03:41:30;;;;;;;9.63;2.90;;;;;;;7.90;72.23;98289.84;6290656;28;20191;-56
2024/01/25 03:44:32;;;;;;;8.63;2.23;;;;;;;7.90;71.97;98297.00;6277950;28;20201;-55
2024/01/25 03:47:35;;;;;;;8.83;2.60;;;;;;;7.88;70.68;98276.00;6282799;28;20198;-56
2024/01/25 03:50:37;;;;;;;9.23;2.47;;;;;;;7.84;72.01;98293.34;6290744;28;20201;-54
2024/01/25 03:53:42;;;;;;;12.20;2.77;;;;;;;7.82;72.16;98286.59;6268099;28;20568;-54
2024/01/25 03:56:45;;;;;;;16.60;2.87;;;;;;;8.05;70.80;98278.97;6275137;28;20187;-55
2024/01/25 03:59:48;;;;;;;10.53;2.80;;;;;;;7.86;71.60;98280.69;6282560;28;20219;-57
2024/01/25 04:02:51;;;;;;;7.73;2.63;;;;;;;7.85;71.86;98275.59;6278549;28;20190;-54
2024/01/25 04:05:54;;;;;;;7.20;2.37;;;;;;;7.83;72.70;98280.28;6280541;28;20859;-54
2024/01/25 04:08:56;;;;;;;13.77;2.87;;;;;;;7.88;70.79;98286.59;6279564;28;20233;-57
2024/01/25 04:11:59;;;;;;;7.67;2.20;;;;;;;7.88;71.42;98299.03;6284377;28;20286;-56
2024/01/25 04:15:02;;;;;;;6.47;2.90;;;;;;;7.83;70.84;98298.84;6280532;28;20189;-56
2024/01/25 04:18:05;;;;;;;13.33;2.83;;;;;;;7.82;72.21;98290.06;6287871;28;20297;-54
2024/01/25 04:21:09;;;;;;;11.10;2.57;;;;;;;7.81;71.13;98299.06;6280437;28;20219;-57
2024/01/25 04:24:11;;;;;;;10.77;2.70;;;;;;;7.90;70.36;98295.16;6280396;28;20204;-55
2024/01/25 04:27:14;;;;;;;7.70;2.07;;;;;;;7.91;71.01;98304.75;6280932;28;20188;-50
2024/01/25 04:30:18;;;;;;;12.33;3.20;;;;;;;7.76;72.57;98277.66;6280074;28;20194;-57
2024/01/25 04:33:21;;;;;;;11.73;2.60;;;;;;;7.30;72.60;98243.31;6278447;28;20201;-57
2024/01/25 04:36:24;;;;;;;11.37;2.37;;;;;;;7.88;70.91;98291.91;6279872;28;20203;-56
2024/01/25 04:39:27;;;;;;;12.43;2.43;;;;;;;7.75;71.39;98300.72;6290588;28;20211;-55
2024/01/25 04:42:29;;;;;;;9.47;2.43;;;;;;;7.80;70.96;98294.78;6278356;28;20207;-55
2024/01/25 04:45:32;;;;;;;12.77;3.13;;;;;;;7.97;69.47;98293.28;6281315;28;20225;-57
2024/01/25 04:48:35;;;;;;;6.43;2.30;;;;;;;7.82;71.59;98302.53;6283739;28;20205;-53
2024/01/25 04:51:37;;;;;;;9.07;2.47;;;;;;;7.72;71.44;98287.03;6283614;28;20198;-57
2024/01/25 04:54:40;;;;;;;13.63;2.77;;;;;;;7.77;71.71;98300.50;6277923;28;20205;-56
2024/01/25 04:57:43;;;;;;;12.43;2.90;;;;;;;7.76;70.12;98298.88;6266072;28;20219;-56
2024/01/25 05:00:46;;;;;;;10.33;2.93;;;;;;;7.80;71.66;98299.28;6290067;28;20194;-56
2024/01/25 05:03:49;;;;;;;7.97;2.40;;;;;;;7.80;71.08;98305.41;6277955;28;20191;-56
2024/01/25 05:06:52;;;;;;;7.80;2.30;;;;;;;7.73;70.33;98308.06;6283329;28;20674;-57
2024/01/25 05:09:54;;;;;;;15.00;3.00;;;;;;;7.74;71.47;98308.88;6269645;28;20241;-56
2024/01/25 05:12:57;;;;;;;9.90;3.07;;;;;;;7.69;72.49;98300.75;6284114;28;20693;-55
2024/01/25 05:15:59;;;;;;;15.80;3.07;;;;;;;7.76;70.79;98320.09;6283976;28;20669;-57
2024/01/25 05:19:02;;;;;;;11.53;2.60;;;;;;;7.72;71.24;98313.56;6284816;28;20236;-55
2024/01/25 05:22:07;;;;;;;15.70;2.83;;;;;;;7.60;73.61;98296.69;6270202;28;20206;-54
2024/01/25 05:25:09;;;;;;;9.80;2.13;;;;;;;7.41;75.56;98295.69;6261812;28;20206;-57
2024/01/25 05:28:12;;;;;;;9.63;2.33;;;;;;;7.37;74.35;98292.63;6277693;28;20198;-56
2024/01/25 05:31:16;;;;;;;9.90;2.70;;;;;;;7.44;75.47;98282.84;6274189;28;20198;-51
2024/01/25 05:34:18;;;;;;;12.67;2.20;;;;;;;7.49;74.64;98295.47;6279086;28;20201;-56
2024/01/25 05:37:21;;;;;;;10.70;2.43;;;;;;;7.66;73.04;98288.69;6286667;28;20697;-57
2024/01/25 05:40:24;;;;;;;11.20;2.37;;;;;;;7.57;72.63;98297.09;6278623;28;20206;-56
2024/01/25 05:43:27;;;;;;;11.47;3.13;;;;;;;7.62;72.32;98294.63;6281426;28;20264;-57
2024/01/25 05:46:30;;;;;;;11.60;2.90;;;;;;;7.66;73.12;98282.59;6264690;28;20196;-57
2024/01/25 05:49:32;;;;;;;13.73;3.30;;;;;;;7.57;73.32;98274.03;6287209;28;20662;-56
2024/01/25 05:52:39;;;;;;;11.97;2.60;;;;;;;7.57;73.40;98281.97;6274163;28;20575;-57
2024/01/25 05:55:42;;;;;;;14.23;2.77;;;;;;;7.56;74.34;98277.72;6279960;28;20187;-57
2024/01/25 05:58:44;;;;;;;9.93;2.30;;;;;;;7.55;73.04;98267.31;6288846;28;20546;-54
2024/01/25 06:01:47;;;;;;;9.07;2.90;;;;;;;7.61;72.52;98271.78;6278432;28;20670;-54
2024/01/25 06:04:49;;;;;;;12.97;3.10;;;;;;;7.45;73.62;98234.09;6284434;28;20269;-55
2024/01/25 06:07:52;;;;;;;16.40;3.17;;;;;;;7.56;72.54;98264.44;6279100;28;20234;-53
2024/01/25 06:10:55;;;;;;;14.43;3.57;;;;;;;7.49;73.38;98284.88;6270988;28;20672;-55
2024/01/25 06:13:58;;;;;;;9.60;2.97;;;;;;;7.46;73.71;98272.03;6262939;28;20421;-56
2024/01/25 06:17:00;;;;;;;16.40;3.10;;;;;;;7.40;73.74;98278.97;6259698;28;20642;-57
2024/01/25 06:20:03;;;;;;;14.23;3.17;;;;;;;7.51;73.35;98269.56;6275334;28;20555;-56
2024/01/25 06:23:06;;;;;;;10.60;2.93;;;;;;;7.48;74.61;98262.00;6281930;28;20278;-53
2024/01/25 06:26:08;;;;;;;13.90;2.80;;;;;;;7.42;74.14;98279.56;6288677;28;20272;-57
2024/01/25 06:29:11;;;;;;;10.87;3.00;;;;;;;7.26;75.45;98285.31;6277328;28;20193;-54
2024/01/25 06:32:14;;;;;;;7.17;2.10;;;;;;;7.15;74.71;98277.97;6277044;28;20190;-56
2024/01/25 06:35:27;;;;;;;9.17;2.83;;;;;;;7.26;75.71;98303.03;6275372;28;20191;-56
2024/01/25 06:38:30;;;;;;;17.27;2.80;;;;;;;7.31;75.15;98319.97;6280030;28;20239;-55
2024/01/25 06:41:33;;;;;;;10.77;2.90;;;;;;;7.48;74.21;98317.69;6259903;28;20205;-56
2024/01/25 06:44:35;;;;;;;8.77;2.70;;;;;;;7.47;74.29;98308.91;6260913;28;20203;-56
2024/01/25 06:47:38;;;;;;;11.57;2.70;;;;;;;7.48;73.35;98305.25;6272679;28;20194;-57
2024/01/25 06:50:40;;;;;;;12.47;2.73;;;;;;;7.54;73.25;98294.84;6278900;28;20218;-54
2024/01/25 06:53:43;;;;;;;11.93;2.63;;;;;;;7.36;75.95;98304.25;6261080;28;20203;-54
2024/01/25 06:56:45;;;;;;;11.63;3.27;;;;;;;7.47;73.01;98308.09;6291817;28;20223;-57
2024/01/25 06:59:48;;;;;;;14.07;3.40;;;;;;;7.41;73.76;98308.94;6289123;28;20202;-56
2024/01/25 07:02:51;;;;;;;14.93;3.40;;;;;;;7.38;73.98;98323.41;6292137;28;20217;-56
2024/01/25 07:05:54;;;;;;;9.93;2.63;;;;;;;7.44;72.98;98317.31;6285866;28;20234;-56
2024/01/25 07:08:56;;;;;;;10.77;2.87;;;;;;;7.46;72.99;98325.84;6267270;28;20257;-55
2024/01/25 07:11:59;;;;;;;10.90;3.07;;;;;;;7.54;72.63;98318.69;6263268;28;20582;-56
2024/01/25 07:15:02;;;;;;;10.40;2.90;;;;;;;7.53;72.25;98331.13;6289974;28;20194;-55
2024/01/25 07:18:05;;;;;;;13.27;3.40;;;;;;;7.53;71.82;98325.84;6258938;28;20203;-54
2024/01/25 07:21:07;;;;;;;13.13;2.80;;;;;;;7.35;73.83;98315.88;6283547;28;20215;-55
2024/01/25 07:24:10;;;;;;;13.03;3.13;;;;;;;7.54;71.36;98337.25;6288626;28;20191;-54
2024/01/25 07:27:12;;;;;;;11.13;3.00;;;;;;;7.49;74.11;98349.31;6284025;28;20402;-55
2024/01/25 07:30:15;;;;;;;8.30;2.47;;;;;;;7.44;72.96;98351.75;6283476;28;20340;-52
2024/01/25 07:33:18;;;;;;;17.57;4.07;;;;;;;7.41;73.85;98343.41;6282925;28;20282;-55
2024/01/25 07:36:20;;;;;;;11.73;2.90;;;;;;;7.38;72.38;98339.31;6289403;28;20202;-56
2024/01/25 07:39:26;;;;;;;13.67;2.70;;;;;;;7.57;72.54;98323.59;6276766;28;20205;-54
2024/01/25 07:42:29;;;;;;;14.50;3.43;;;;;;;7.48;74.24;98338.88;6266379;28;20195;-55
2024/01/25 07:45:34;;;;;;;8.17;2.60;;;;;;;7.37;73.63;98344.81;6292252;28;20565;-55
2024/01/25 07:48:37;;;;;;;15.27;3.50;;;;;;;7.47;72.86;98334.63;6284245;28;20263;-53
2024/01/25 07:51:40;;;;;;;16.23;3.60;;;;;;;7.44;73.92;98343.00;6282649;28;20552;-54
2024/01/25 07:54:44;;;;;;;10.70;2.60;;;;;;;7.21;76.62;98359.31;6270896;28;20221;-55
2024/01/25 07:57:46;;;;;;;11.80;2.83;;;;;;;7.22;77.50;98374.19;6270147;28;20228;-56
2024/01/25 08:00:49;;;;;;;12.77;3.53;;;;;;;7.26;76.58;98372.75;6279834;28;20207;-55
2024/01/25 08:03:52;;;;;;;9.47;3.03;;;;;;;7.16;80.23;98382.94;6285998;28;20196;-56
2024/01/25 08:06:54;;;;;;;15.50;3.33;;;;;;;7.07;82.13;98406.16;6286554;28;20205;-55
2024/01/25 08:09:58;;;;;;;12.70;2.90;;;;;;;6.65;82.32;98392.22;6280165;28;20238;-56
2024/01/25 08:13:00;;;;;;;11.33;3.30;;;;;;;6.69;84.64;98422.53;6270549;28;20201;-57
2024/01/25 08:16:12;;;;;;;13.33;3.13;;;;;;;6.60;84.44;98426.41;6270547;28;20966;-56
2024/01/25 08:19:14;;;;;;;8.90;2.97;;;;;;;6.70;81.19;98410.16;6285606;28;20216;-54
2024/01/25 08:22:17;;;;;;;18.33;3.77;;;;;;;6.77;81.88;98418.09;6285631;28;20229;-53
2024/01/25 08:25:25;;;;;;;10.27;2.63;;;;;;;6.66;82.72;98400.97;6279458;28;20194;-55
2024/01/25 08:28:27;;;;;;;12.37;2.93;;;;;;;6.85;80.11;98421.41;6286682;28;20198;-54
2024/01/25 08:31:30;;;;;;;10.53;2.80;;;;;;;6.92;79.53;98427.53;6279823;28;20201;-56
2024/01/25 08:34:32;;;;;;;17.30;3.60;;;;;;;6.85;85.04;98410.00;6288286;28;20199;-54
2024/01/25 08:37:37;;;;;;;12.07;2.87;;;;;;;6.87;85.21;98415.91;6274619;28;20199;-56
2024/01/25 08:40:40;;;;;;;12.90;2.77;;;;;;;6.86;81.78;98423.03;6281696;28;20278;-53
2024/01/25 08:43:43;;;;;;;10.97;2.80;;;;;;;6.87;81.25;98427.31;6279254;28;20240;-56
2024/01/25 08:46:45;;;;;;;11.07;3.23;;;;;;;6.87;81.98;98416.72;6284837;28;20193;-55
2024/01/25 08:49:47;;;;;;;10.90;2.80;;;;;;;6.90;83.17;98424.25;6290547;28;20204;-55
2024/01/25 08:52:50;;;;;;;10.03;2.83;;;;;;;6.91;84.52;98433.84;6260578;28;20194;-52
2024/01/25 08:55:56;;;;;;;9.23;2.70;;;;;;;7.01;80.73;98414.91;6261607;28;20232;-56
2024/01/25 08:58:58;;;;;;;11.70;2.73;;;;;;;7.09;79.62;98430.59;6286240;28;20738;-56
2024/01/25 09:02:01;;;;;;;11.63;3.00;;;;;;;6.98;79.99;98416.13;6284317;28;20204;-56
2024/01/25 09:05:08;;;;;;;8.07;2.30;;;;;;;7.09;80.41;98419.19;6279566;28;20209;-55
2024/01/25 09:08:12;;;;;;;11.70;2.80;;;;;;;7.04;80.67;98426.94;6280562;28;20765;-56
2024/01/25 09:11:15;;;;;;;15.30;4.03;;;;;;;7.11;82.19;98441.84;6272977;28;20685;-54
2024/01/25 09:14:17;;;;;;;10.07;2.63;;;;;;;7.35;76.92;98429.03;6276561;28;20277;-56
2024/01/25 09:17:21;;;;;;;13.27;4.20;;;;;;;7.15;78.13;98413.13;6279852;28;20212;-57
2024/01/25 09:20:25;;;;;;;10.90;3.10;;;;;;;7.21;78.62;98418.41;6285667;28;20214;-54
2024/01/25 09:23:27;;;;;;;12.70;3.73;;;;;;;7.34;77.83;98420.28;6284087;28;20209;-54
2024/01/25 09:26:30;;;;;;;11.03;3.10;;;;;;;7.55;77.78;98439.66;6280734;28;20250;-55
2024/01/25 09:29:32;;;;;;;12.20;2.87;;;;;;;7.59;78.46;98441.69;6276391;28;20718;-57
2024/01/25 09:32:35;;;;;;;8.73;2.67;;;;;;;7.65;75.50;98445.38;6279814;28;20275;-55
2024/01/25 09:35:38;;;;;;;11.60;2.87;;;;;;;7.70;73.90;98453.53;6286001;28;20209;-55
2024/01/25 09:38:40;;;;;;;6.20;2.30;;;;;;;7.75;75.45;98451.88;6277977;28;20210;-57
2024/01/25 09:41:43;;;;;;;13.37;3.00;;;;;;;7.71;72.19;98455.16;6286172;28;20669;-56
2024/01/25 09:44:48;;;;;;;8.43;2.73;;;;;;;7.79;72.76;98470.06;6282123;28;20191;-54
2024/01/25 09:47:52;;;;;;;12.50;3.00;;;;;;;7.80;71.86;98461.06;6266043;28;20670;-54
2024/01/25 09:50:56;;;;;;;12.03;3.33;;;;;;;7.86;72.97;98470.84;6280849;28;20194;-55
2024/01/25 09:54:00;;;;;;;11.87;2.87;;;;;;;7.88;73.48;98461.69;6284515;28;20199;-52
2024/01/25 09:57:13;;;;;;;8.63;3.20;;;;;;;7.85;71.65;98467.38;6275217;28;20195;-56
2024/01/25 10:00:17;;;;;;;16.43;3.73;;;;;;;7.80;72.52;98456.56;6283662;28;20206;-53
2024/01/25 10:03:19;;;;;;;8.20;2.70;;;;;;;7.70;73.35;98464.94;6274246;28;20201;-57
2024/01/25 10:06:22;;;;;;;8.17;2.33;;;;;;;7.79;73.03;98460.25;6280624;28;20293;-53
2024/01/25 10:09:25;;;;;;;9.57;2.57;;;;;;;7.74;72.43;98460.06;6265066;28;20230;-57
2024/01/25 10:12:27;;;;;;;11.47;3.50;;;;;;;7.67;71.92;98467.19;6283770;28;20198;-56
2024/01/25 10:15:30;;;;;;;9.90;2.60;;;;;;;7.60;72.55;98467.19;6274570;28;20191;-56
2024/01/25 10:18:32;;;;;;;10.13;2.90;;;;;;;7.67;75.38;98469.84;6267897;28;20206;-55
2024/01/25 10:21:36;;;;;;;9.50;2.87;;;;;;;7.79;75.06;98467.41;6275197;28;20195;-55
2024/01/25 10:24:40;;;;;;;11.47;2.80;;;;;;;7.67;76.77;98475.13;6288471;28;20201;-54
2024/01/25 10:27:43;;;;;;;10.47;2.97;;;;;;;7.65;76.26;98480.66;6279832;28;20675;-55
2024/01/25 10:30:47;;;;;;;12.30;3.70;;;;;;;7.73;76.92;98467.19;6292652;28;20221;-56
2024/01/25 10:33:53;;;;;;;8.37;2.60;;;;;;;7.89;71.20;98460.66;6287726;28;20205;-55
2024/01/25 10:36:57;;;;;;;13.10;3.10;;;;;;;8.26;72.03;98461.00;6282503;28;20209;-55
2024/01/25 10:40:00;;;;;;;13.20;3.13;;;;;;;8.48;69.76;98459.75;6281875;28;20221;-56
2024/01/25 10:43:03;;;;;;;11.27;3.10;;;;;;;8.50;69.34;98451.59;6287759;28;20198;-53
2024/01/25 10:46:06;;;;;;;9.13;3.07;;;;;;;8.52;68.29;98453.03;6281484;28;20729;-54
2024/01/25 10:49:09;;;;;;;9.63;3.50;;;;;;;8.48;66.15;98449.16;6282375;28;20195;-55
2024/01/25 10:52:13;;;;;;;8.27;3.40;;;;;;;8.52;63.47;98452.19;6291103;28;20839;-54
2024/01/25 10:55:17;;;;;;;12.33;3.23;;;;;;;8.43;63.81;98448.97;6278557;28;20191;-56
2024/01/25 10:58:20;;;;;;;13.20;2.80;;;;;;;8.36;64.72;98426.91;6279752;28;20196;-55
2024/01/25 11:01:23;;;;;;;9.73;2.83;;;;;;;8.52;66.59;98431.78;6279665;28;20703;-56
2024/01/25 11:04:26;;;;;;;9.60;2.43;;;;;;;8.66;63.62;98416.56;6287067;28;20207;-55
2024/01/25 11:07:28;;;;;;;8.87;3.10;;;;;;;8.92;61.10;98431.59;6292110;28;20234;-55
2024/01/25 11:10:37;;;;;;;9.73;2.73;;;;;;;8.84;63.37;98423.06;6283334;28;20186;-56
2024/01/25 11:13:41;;;;;;;11.13;3.10;;;;;;;8.88;64.16;98424.25;6286170;28;20192;-55
2024/01/25 11:16:47;;;;;;;8.10;2.70;;;;;;;9.09;59.30;98405.31;6264939;28;20193;-56
2024/01/25 11:19:50;;;;;;;8.33;2.50;;;;;;;8.94;59.30;98413.59;6285372;28;20660;-53
2024/01/25 11:23:04;;;;;;;11.43;3.07;;;;;;;9.10;59.53;98432.72;6278789;28;20194;-55
2024/01/25 11:26:08;;;;;;;11.53;3.50;;;;;;;9.02;60.09;98407.22;6281626;28;20226;-54
2024/01/25 11:29:20;;;;;;;10.97;2.53;;;;;;;9.10;58.54;98406.13;6292100;28;20194;-55
2024/01/25 11:32:22;;;;;;;8.97;2.63;;;;;;;9.04;60.19;98376.72;6279836;28;20579;-57
2024/01/25 11:35:25;;;;;;;10.87;2.47;;;;;;;9.20;60.13;98391.34;6267105;28;20248;-56
2024/01/25 11:38:29;;;;;;;9.30;3.40;;;;;;;9.34;58.82;98412.53;6278097;28;20188;-55
2024/01/25 11:41:31;;;;;;;11.97;3.30;;;;;;;9.49;57.52;98400.53;6283200;28;20281;-57
2024/01/25 11:44:34;;;;;;;11.57;3.40;;;;;;;9.27;58.92;98420.56;6280859;28;20667;-56
2024/01/25 11:47:38;;;;;;;10.87;3.07;;;;;;;9.17;59.44;98402.41;6267413;28;20216;-56
2024/01/25 11:50:40;;;;;;;10.97;2.80;;;;;;;9.09;60.05;98400.00;6282287;28;20209;-56
2024/01/25 11:53:44;;;;;;;9.73;2.37;;;;;;;8.92;59.25;98390.94;6282254;28;20744;-54
2024/01/25 11:56:47;;;;;;;9.67;2.60;;;;;;;8.96;59.11;98408.84;6284556;28;20205;-56
2024/01/25 11:59:50;;;;;;;9.50;2.90;;;;;;;8.84;58.20;98353.97;6284738;28;20312;-56
2024/01/25 12:02:53;;;;;;;13.47;3.00;;;;;;;8.80;59.93;98388.13;6279857;28;20697;-56
2024/01/25 12:05:58;;;;;;;15.43;2.60;;;;;;;8.74;59.21;98386.31;6285140;28;20195;-56
2024/01/25 12:09:12;;;;;;;7.27;2.73;;;;;;;8.85;58.53;98385.63;6281663;28;20258;-53
2024/01/25 12:12:15;;;;;;;9.97;2.83;;;;;;;8.91;56.78;98371.50;6280620;28;20289;-55
2024/01/25 12:15:18;;;;;;;11.40;3.27;;;;;;;8.73;56.92;98374.88;6282718;28;20201;-55
2024/01/25 12:18:20;;;;;;;9.47;2.60;;;;;;;8.66;57.65;98371.44;6286924;28;20199;-55
2024/01/25 12:21:23;;;;;;;12.03;2.67;;;;;;;8.69;58.82;98375.50;6274345;28;20266;-54
2024/01/25 12:24:25;;;;;;;9.10;2.87;;;;;;;8.81;57.06;98373.78;6283807;28;20205;-56
2024/01/25 12:27:30;;;;;;;8.77;2.33;;;;;;;8.86;55.83;98400.53;6286147;28;20191;-56
2024/01/25 12:30:33;;;;;;;14.60;3.60;;;;;;;8.80;56.70;98358.91;6280452;28;20652;-56
2024/01/25 12:33:35;;;;;;;10.57;3.10;;;;;;;8.52;56.95;98357.41;6263787;28;20210;-57
2024/01/25 12:36:38;;;;;;;8.10;2.50;;;;;;;8.69;55.31;98373.66;6288340;28;20324;-56
2024/01/25 12:39:41;;;;;;;11.60;3.33;;;;;;;8.77;55.65;98365.47;6287535;28;20206;-54
2024/01/25 12:42:44;;;;;;;10.57;2.83;;;;;;;8.64;56.69;98340.81;6277956;28;20199;-56
2024/01/25 12:45:47;;;;;;;7.90;2.50;;;;;;;8.72;57.04;98351.19;6283789;28;20218;-54
2024/01/25 12:48:54;;;;;;;12.60;3.20;;;;;;;8.86;55.79;98333.31;6274927;28;20273;-56
2024/01/25 12:51:58;;;;;;;9.57;3.10;;;;;;;8.63;58.71;98345.31;6278204;28;20204;-55
2024/01/25 12:55:02;;;;;;;11.23;3.17;;;;;;;8.57;57.09;98329.38;6283513;28;20547;-54
2024/01/25 12:58:05;;;;;;;10.07;3.40;;;;;;;8.61;58.17;98322.63;6285975;28;20209;-55
2024/01/25 13:01:09;;;;;;;9.93;3.00;;;;;;;8.59;56.96;98337.97;6284971;28;20243;-56
2024/01/25 13:04:12;;;;;;;12.00;3.10;;;;;;;8.56;56.82;98327.78;6282119;28;20205;-55
2024/01/25 13:07:14;;;;;;;12.50;3.43;;;;;;;8.44;58.40;98343.56;6285025;28;20194;-53
2024/01/25 13:10:17;;;;;;;9.93;3.27;;;;;;;8.37;58.35;98342.75;6277824;28;20202;-55
2024/01/25 13:13:20;;;;;;;11.97;2.87;;;;;;;8.39;57.52;98336.22;6283734;28;20198;-56
2024/01/25 13:16:23;;;;;;;7.17;2.60;;;;;;;8.40;56.63;98294.56;6288334;28;20761;-62
2024/01/25 13:19:26;;;;;;;13.10;3.50;;;;;;;8.44;55.76;98299.25;6274660;28;20207;-63
2024/01/25 13:22:30;;;;;;;14.50;3.40;;;;;;;8.31;56.00;98322.34;6284209;28;20198;-55
2024/01/25 13:25:32;;;;;;;9.03;2.77;;;;;;;8.16;56.03;98304.03;6277194;28;20191;-54
2024/01/25 13:28:34;;;;;;;12.07;2.87;;;;;;;8.07;55.28;98268.16;6279304;28;20212;-57
2024/01/25 13:31:37;;;;;;;5.93;2.70;;;;;;;8.21;56.23;98331.56;6288006;28;20690;-54
2024/01/25 13:34:39;;;;;;;11.00;3.50;;;;;;;8.15;56.80;98307.72;6282406;28;20316;-57
2024/01/25 13:37:42;;;;;;;14.57;2.83;;;;;;;8.27;54.76;98298.06;6287278;28;20548;-54
2024/01/25 13:40:44;;;;;;;12.10;2.90;;;;;;;8.19;55.99;98325.66;6284173;28;20206;-55
2024/01/25 13:43:48;;;;;;;12.63;3.43;;;;;;;8.24;53.86;98327.69;6276046;28;20733;-56
2024/01/25 13:46:50;;;;;;;10.13;2.77;;;;;;;8.26;52.99;98330.94;6284748;28;20674;-54
2024/01/25 13:49:53;;;;;;;12.47;2.73;;;;;;;8.17;53.82;98345.47;6281673;28;20225;-53
2024/01/25 13:52:55;;;;;;;12.63;2.53;;;;;;;8.19;53.97;98308.94;6284612;28;20191;-56
2024/01/25 13:55:58;;;;;;;8.90;2.90;;;;;;;8.24;55.37;98325.84;6281608;28;20204;-55
2024/01/25 13:59:00;;;;;;;6.87;2.20;;;;;;;8.12;53.70;98316.09;6282931;28;20190;-55
2024/01/25 14:02:02;;;;;;;7.27;2.60;;;;;;;7.98;56.40;98337.38;6280030;28;20675;-54
2024/01/25 14:05:06;;;;;;;9.27;2.67;;;;;;;7.92;55.21;98319.63;6266916;28;20211;-56
2024/01/25 14:08:09;;;;;;;11.10;2.93;;;;;;;7.93;54.47;98325.75;6287438;28;20234;-55
2024/01/25 14:11:11;;;;;;;10.53;2.87;;;;;;;7.93;54.52;98363.72;6280349;28;20202;-56
2024/01/25 14:14:14;;;;;;;10.93;2.80;;;;;;;8.12;52.73;98340.78;6281994;28;20758;-53
2024/01/25 14:17:16;;;;;;;9.90;2.93;;;;;;;8.00;54.04;98353.91;6282901;28;20205;-55
2024/01/25 14:20:19;;;;;;;12.10;3.07;;;;;;;7.96;53.65;98352.69;6284562;28;20225;-53
2024/01/25 14:23:21;;;;;;;8.33;2.60;;;;;;;7.82;55.31;98388.22;6282009;28;20202;-53
2024/01/25 14:26:24;;;;;;;11.33;3.23;;;;;;;7.82;53.73;98390.06;6283230;28;20191;-53